createdAt,value
2019-04-01T00:04:09.264Z,12.43
2019-04-01T00:09:12.342Z,10.65
2019-04-01T00:14:15.351Z,9.83
2019-04-01T00:19:18.477Z,13.72
2019-04-01T00:24:21.476Z,11.08
2019-04-01T00:29:24.543Z,11.08
2019-04-01T00:34:27.516Z,15.18
2019-04-01T00:39:30.873Z,16.87
2019-04-01T00:44:33.871Z,12.58
2019-04-01T00:49:36.885Z,15.20
2019-04-01T00:54:39.856Z,7.58
2019-04-01T00:59:42.941Z,9.95
2019-04-01T01:04:45.963Z,7.83
2019-04-01T01:09:48.983Z,10.53
2019-04-01T01:14:52.052Z,11.40
2019-04-01T01:19:55.401Z,11.15
2019-04-01T01:24:58.388Z,13.05
2019-04-01T01:30:01.591Z,8.28
2019-04-01T01:35:05.078Z,11.60
2019-04-01T01:40:08.199Z,13.03
2019-04-01T01:45:11.174Z,10.95
2019-04-01T01:50:14.393Z,10.98
2019-04-01T01:55:17.357Z,10.65
2019-04-01T02:00:21.059Z,11.57
2019-04-01T02:05:24.059Z,10.30
2019-04-01T02:10:27.164Z,12.20
2019-04-01T02:15:30.119Z,15.50
2019-04-01T02:20:33.533Z,13.48
2019-04-01T02:25:36.664Z,11.08
2019-04-01T02:30:39.965Z,13.68
2019-04-01T02:35:43.180Z,13.30
2019-04-01T02:40:46.411Z,10.05
2019-04-01T02:45:49.496Z,8.80
2019-04-01T02:50:52.444Z,10.23
2019-04-01T02:55:55.414Z,12.25
2019-04-01T03:00:58.412Z,13.62
2019-04-01T03:06:01.484Z,15.00
2019-04-01T03:11:04.675Z,10.35
2019-04-01T03:16:07.606Z,10.25
2019-04-01T03:21:10.696Z,10.55
2019-04-01T03:26:14.026Z,12.85
2019-04-01T03:31:17.047Z,11.33
2019-04-01T03:36:19.982Z,11.80
2019-04-01T03:41:23.127Z,7.72
2019-04-01T03:46:26.119Z,14.35
2019-04-01T03:51:29.182Z,9.25
2019-04-01T03:56:32.123Z,10.05
2019-04-01T04:01:35.455Z,10.05
2019-04-01T04:06:38.441Z,7.35
2019-04-01T04:11:41.446Z,7.78
2019-04-01T04:16:44.571Z,7.97
2019-04-01T04:21:47.554Z,12.07
2019-04-01T04:26:50.636Z,11.00
2019-04-01T04:31:53.818Z,8.28
2019-04-01T04:36:56.991Z,9.33
2019-04-01T04:42:00.218Z,15.72
2019-04-01T04:47:03.622Z,10.48
2019-04-01T04:52:06.693Z,6.83
2019-04-01T04:57:09.658Z,7.25
2019-04-01T05:02:13.282Z,7.22
2019-04-01T05:07:16.838Z,8.63
2019-04-01T05:12:19.907Z,7.30
2019-04-01T05:17:22.948Z,10.37
2019-04-01T05:22:26.350Z,7.42
2019-04-01T05:27:33.432Z,9.58
2019-04-01T05:32:37.231Z,9.38
2019-04-01T05:37:40.440Z,14.98
2019-04-01T05:42:43.391Z,6.63
2019-04-01T05:47:49.097Z,8.83
2019-04-01T05:52:52.067Z,9.27
2019-04-01T05:57:55.927Z,12.05
2019-04-01T06:02:58.919Z,9.48
2019-04-01T06:08:02.325Z,10.23
2019-04-01T06:13:05.675Z,7.47
2019-04-01T06:18:08.839Z,13.50
2019-04-01T06:23:11.853Z,12.07
2019-04-01T06:28:15.206Z,11.15
2019-04-01T06:33:18.344Z,9.00
2019-04-01T06:38:21.929Z,5.58
2019-04-01T06:43:25.254Z,5.70
2019-04-01T06:48:28.353Z,6.70
2019-04-01T06:53:31.736Z,10.63
2019-04-01T06:58:35.461Z,5.85
2019-04-01T07:03:38.412Z,9.05
2019-04-01T07:08:41.447Z,8.43
2019-04-01T07:13:44.557Z,7.85
2019-04-01T07:18:47.839Z,10.25
2019-04-01T07:23:50.902Z,6.50
2019-04-01T07:28:54.602Z,7.15
2019-04-01T07:33:57.649Z,9.48
2019-04-01T07:39:00.676Z,9.93
2019-04-01T07:44:03.890Z,5.17
2019-04-01T07:49:06.963Z,5.30
2019-04-01T07:54:10.432Z,10.70
2019-04-01T07:59:13.608Z,5.65
2019-04-01T08:04:16.738Z,7.37
2019-04-01T08:09:19.962Z,7.53
2019-04-01T08:14:22.970Z,5.50
2019-04-01T08:19:25.927Z,9.13
2019-04-01T08:24:28.946Z,6.95
2019-04-01T08:29:32.024Z,12.50
2019-04-01T08:34:35.169Z,6.03
2019-04-01T08:39:38.121Z,6.08
2019-04-01T08:44:41.408Z,10.38
2019-04-01T08:49:44.574Z,6.92
2019-04-01T08:54:47.705Z,6.05
2019-04-01T08:59:50.984Z,7.08
2019-04-01T09:04:54.092Z,10.70
2019-04-01T09:09:57.711Z,4.65
2019-04-01T09:15:01.810Z,2.98
2019-04-01T09:20:05.311Z,7.03
2019-04-01T09:25:08.613Z,4.80
2019-04-01T09:30:12.120Z,6.93
2019-04-01T09:35:15.297Z,3.58
2019-04-01T09:40:18.432Z,6.25
2019-04-01T09:45:21.569Z,5.37
2019-04-01T09:50:24.567Z,5.65
2019-04-01T09:55:27.572Z,4.05
2019-04-01T10:00:30.564Z,4.33
2019-04-01T10:05:33.630Z,3.75
2019-04-01T10:10:36.695Z,4.05
2019-04-01T10:15:39.653Z,4.00
2019-04-01T10:20:42.769Z,4.12
2019-04-01T10:25:45.816Z,7.08
2019-04-01T10:30:48.802Z,4.40
2019-04-01T10:35:51.926Z,5.28
2019-04-01T10:40:54.888Z,2.98
2019-04-01T10:45:57.924Z,4.47
2019-04-01T10:51:01.069Z,6.45
2019-04-01T10:56:04.416Z,5.00
2019-04-01T11:01:07.425Z,5.78
2019-04-01T11:06:10.687Z,3.22
2019-04-01T11:11:14.110Z,5.67
2019-04-01T11:16:17.212Z,6.08
2019-04-01T11:21:20.258Z,4.95
2019-04-01T11:26:23.316Z,3.67
2019-04-01T11:31:26.599Z,5.37
2019-04-01T11:36:29.787Z,3.92
2019-04-01T11:41:32.831Z,6.53
2019-04-01T11:46:35.840Z,5.45
2019-04-01T11:51:40.196Z,5.53
2019-04-01T11:56:43.721Z,9.25
2019-04-01T12:01:47.541Z,5.00
2019-04-01T12:06:51.418Z,5.05
2019-04-01T12:11:54.615Z,5.42
2019-04-01T12:16:57.593Z,3.22
2019-04-01T12:22:00.674Z,4.30
2019-04-01T12:27:03.722Z,4.15
2019-04-01T12:32:06.856Z,2.80
2019-04-01T12:37:09.929Z,3.83
2019-04-01T12:42:13.157Z,5.00
2019-04-01T12:47:16.685Z,3.27
2019-04-01T12:52:19.820Z,6.45
2019-04-01T12:57:22.954Z,3.85
2019-04-01T13:02:26.026Z,4.28
2019-04-01T13:07:29.045Z,3.17
2019-04-01T13:12:32.453Z,4.65
2019-04-01T13:17:35.575Z,6.08
2019-04-01T13:22:38.732Z,7.90
2019-04-01T13:27:41.753Z,2.90
2019-04-01T13:32:44.761Z,6.20
2019-04-01T13:37:47.755Z,5.53
2019-04-01T13:42:50.823Z,4.17
2019-04-01T13:47:53.860Z,3.13
2019-04-01T13:52:57.121Z,3.40
2019-04-01T13:58:00.491Z,5.15
2019-04-01T14:03:03.543Z,3.42
2019-04-01T14:08:06.582Z,3.85
2019-04-01T14:13:09.564Z,2.12
2019-04-01T14:18:12.685Z,4.90
2019-04-01T14:23:15.656Z,2.12
2019-04-01T14:28:18.619Z,2.52
2019-04-01T14:33:21.659Z,6.55
2019-04-01T14:38:25.386Z,4.62
2019-04-01T14:43:31.098Z,3.37
2019-04-01T14:48:33.280Z,3.65
2019-04-01T14:53:37.812Z,3.33
2019-04-01T14:58:41.147Z,1.77
2019-04-01T15:03:44.153Z,3.12
2019-04-01T15:08:48.190Z,2.08
2019-04-01T15:13:51.739Z,2.70
2019-04-01T15:18:54.700Z,7.25
2019-04-01T15:23:58.170Z,2.35
2019-04-01T15:29:01.307Z,2.62
2019-04-01T15:34:04.650Z,1.87
2019-04-01T15:39:11.541Z,3.27
2019-04-01T15:44:14.555Z,2.52
2019-04-01T15:49:17.718Z,4.17
2019-04-01T15:54:20.779Z,4.30
2019-04-01T15:59:23.873Z,4.55
2019-04-01T16:04:26.861Z,4.22
2019-04-01T16:09:29.999Z,3.02
2019-04-01T16:14:32.986Z,4.03
2019-04-01T16:19:36.150Z,2.87
2019-04-01T16:24:39.602Z,3.92
2019-04-01T16:29:45.708Z,2.55
2019-04-01T16:34:48.691Z,3.12
2019-04-01T16:39:54.433Z,2.70
2019-04-01T16:44:56.866Z,3.47
2019-04-01T16:49:59.891Z,4.33
2019-04-01T16:55:06.786Z,5.65
2019-04-01T17:00:14.469Z,3.77
2019-04-01T17:05:24.152Z,8.05
2019-04-01T17:10:28.051Z,2.90
2019-04-01T17:15:31.039Z,4.25
2019-04-01T17:20:34.161Z,5.75
2019-04-01T17:25:37.542Z,8.45
2019-04-01T17:30:40.815Z,6.00
2019-04-01T17:35:43.991Z,6.70
2019-04-01T17:40:47.181Z,8.70
2019-04-01T17:45:50.275Z,6.53
2019-04-01T17:50:53.717Z,7.87
2019-04-01T17:55:56.847Z,6.67
2019-04-01T18:01:00.202Z,10.68
2019-04-01T18:06:03.642Z,10.75
2019-04-01T18:11:06.641Z,12.73
2019-04-01T18:16:09.939Z,12.25
2019-04-01T18:21:13.057Z,5.97
2019-04-01T18:26:17.129Z,9.35
2019-04-01T18:31:21.214Z,11.90
2019-04-01T18:36:24.195Z,7.90
2019-04-01T18:41:27.313Z,11.93
2019-04-01T18:46:30.632Z,10.25
2019-04-01T18:51:36.444Z,16.25
2019-04-01T18:56:38.679Z,12.40
2019-04-01T19:01:42.246Z,9.85
2019-04-01T19:06:45.343Z,11.28
2019-04-01T19:11:48.349Z,10.18
2019-04-01T19:16:51.426Z,12.82
2019-04-01T19:21:54.612Z,9.85
2019-04-01T19:26:57.820Z,11.60
2019-04-01T19:32:00.886Z,10.80
2019-04-01T19:37:03.958Z,11.22
2019-04-01T19:42:07.031Z,11.53
2019-04-01T19:47:10.072Z,14.03
2019-04-01T19:52:13.158Z,14.20
2019-04-01T19:57:16.612Z,13.30
2019-04-01T20:02:19.709Z,15.58
2019-04-01T20:07:22.780Z,13.55
2019-04-01T20:12:25.804Z,9.70
2019-04-01T20:17:29.029Z,12.70
2019-04-01T20:22:32.241Z,12.80
2019-04-01T20:27:35.598Z,10.60
2019-04-01T20:32:38.972Z,13.55
2019-04-01T20:37:42.725Z,8.30
2019-04-01T20:42:46.581Z,11.65
2019-04-01T20:47:50.503Z,13.88
2019-04-01T20:52:53.898Z,8.90
2019-04-01T20:57:57.293Z,13.50
2019-04-01T21:03:01.308Z,11.33
2019-04-01T21:08:05.066Z,16.30
2019-04-01T21:13:08.169Z,14.05
2019-04-01T21:18:11.486Z,18.55
2019-04-01T21:23:14.613Z,23.90
2019-04-01T21:28:17.775Z,16.57
2019-04-01T21:33:20.807Z,18.40
2019-04-01T21:38:24.111Z,20.62
2019-04-01T21:43:27.211Z,14.15
2019-04-01T21:48:30.215Z,18.10
2019-04-01T21:53:33.201Z,14.43
2019-04-01T21:58:36.479Z,14.45
2019-04-01T22:03:39.809Z,14.98
2019-04-01T22:08:43.118Z,15.55
2019-04-01T22:13:46.442Z,15.60
2019-04-01T22:18:49.556Z,17.17
2019-04-01T22:23:52.675Z,15.70
2019-04-01T22:28:55.826Z,18.57
2019-04-01T22:33:58.831Z,21.10
2019-04-01T22:39:04.277Z,15.38
2019-04-01T22:44:07.619Z,18.87
2019-04-01T22:49:12.041Z,15.43
2019-04-01T22:54:16.175Z,14.63
2019-04-01T22:59:20.199Z,20.35
2019-04-01T23:04:23.417Z,17.45
2019-04-01T23:09:26.624Z,13.15
2019-04-01T23:14:29.742Z,18.40
2019-04-01T23:19:34.503Z,17.10
2019-04-01T23:24:38.172Z,14.73
2019-04-01T23:29:41.207Z,18.00
2019-04-01T23:34:44.316Z,16.50
2019-04-01T23:39:47.590Z,17.30
2019-04-01T23:44:51.276Z,19.50
2019-04-01T23:49:55.313Z,13.28
2019-04-01T23:54:59.217Z,16.77
